Prescott, AZ

7:37 AM MST on April 25, 2015 (GMT -0700)
Prescott Heights | | Change Station
CLOSE
Current Station
Personal Weather Station
Location: Prescott, AZ
Elevation: 5305 ft
Nearby Weather Stations

Elev 5305 ft 34.55 °N, 112.47 °W | Updated 1 second ago

Partly Cloudy
Partly Cloudy
44.6 °F
Feels Like 39 °F
N
11.0
Wind Variable Wind from SSW
Gusts 15.0 mph

Today
High -- | Low -- °F
--% Chance of Precip.
Yesterday
High -- | Low -- °F
Precip. -- in
5:46 AM 7:09 PM
Waxing Crescent, 46% visible
Pressure 29.96 in
Visibility 9.0 miles
Clouds Scattered Clouds 2100 ft
Mostly Cloudy 2800 ft
Overcast 4200 ft
Windchill 39 °F
Dew Point 36 °F
Humidity 72%
Rainfall 0.00 in
Snow Depth Not available.
UV 1 out of 12
Pollen 9.10 out of 12
Air Quality Not available.
Flu Activity Local Activity
SPECI KPRC 251432Z 15006KT 9SM SCT021 BKN028 OVC042 09/05 A2996 RMK AO2 CIG LOWER N-E T00890050

More Conditions Fewer Conditions

Pressure 29.96 in
Visibility 9.0 miles
Clouds Scattered Clouds 2100 ft
Mostly Cloudy 2800 ft
Overcast 4200 ft
Windchill 39 °F
Dew Point 36 °F
Humidity 72%
Rainfall 0.00 in
Snow Depth Not available.
UV 1 out of 12
Pollen 9.10 out of 12
Air Quality Not available.
Flu Activity Local Activity
SPECI KPRC 251432Z 15006KT 9SM SCT021 BKN028 OVC042 09/05 A2996 RMK AO2 CIG LOWER N-E T00890050

More Conditions Fewer Conditions

10-Day Weather Forecast

Almanac

Astronomy

Apr. 25, 2015 Rise Set
Actual Time
Civil Twilight
Nautical Twilight
Astronomical Twilight
Moon
Length of Visible Light
Length of Day
Tomorrow will be .
, % of the Moon is Illuminated

Today's Extremes

State Highs State Lows

Community

WunderPhotos

Upload Photos

1,816,688 photos uploaded!

WunderBlogs® & News

Nearby

Air Quality

  Air Quality AQ Index Pollutant
Not available.

Snow Depth

Station Depth Elevation

Earthquake Activity

City Distance Mag. Time & Date
Minimum magnitude displayed is 2.5.

Coastal Water Temperatures

Place Temperature

Stations

Nearby Weather Stations

Station Location Temp. Windchill Dew Point Humidity Wind Precip. Elev Updated Type